sensor_id;sensor_type;location;lat;lon;timestamp;pressure;altitude;pressure_sealevel;temperature;humidity
18201;BME280;9226;47.858;9.594;2022-08-19T00:01:50;94816.69;;;19.75;92.88
18201;BME280;9226;47.858;9.594;2022-08-19T00:04:18;94811.06;;;19.69;92.44
18201;BME280;9226;47.858;9.594;2022-08-19T00:06:45;94810.44;;;19.67;92.02
18201;BME280;9226;47.858;9.594;2022-08-19T00:09:13;94811.84;;;19.63;91.67
18201;BME280;9226;47.858;9.594;2022-08-19T00:11:40;94824.25;;;19.58;91.62
18201;BME280;9226;47.858;9.594;2022-08-19T00:14:08;94836.03;;;19.57;91.21
18201;BME280;9226;47.858;9.594;2022-08-19T00:16:35;94848.38;;;19.51;91.42
18201;BME280;9226;47.858;9.594;2022-08-19T00:19:01;94845.44;;;19.46;91.34
18201;BME280;9226;47.858;9.594;2022-08-19T00:21:27;94838.41;;;19.45;90.79
18201;BME280;9226;47.858;9.594;2022-08-19T00:23:54;94830.72;;;19.42;90.59
18201;BME280;9226;47.858;9.594;2022-08-19T00:26:20;94831.75;;;19.41;90.64
18201;BME280;9226;47.858;9.594;2022-08-19T00:28:45;94832.97;;;19.38;90.83
18201;BME280;9226;47.858;9.594;2022-08-19T00:31:11;94835.22;;;19.34;90.32
18201;BME280;9226;47.858;9.594;2022-08-19T00:33:37;94832.78;;;19.18;91.39
18201;BME280;9226;47.858;9.594;2022-08-19T00:36:06;94825.53;;;19.12;91.12
18201;BME280;9226;47.858;9.594;2022-08-19T00:38:33;94826.34;;;19.12;90.75
18201;BME280;9226;47.858;9.594;2022-08-19T00:40:59;94824.41;;;19.06;90.70
18201;BME280;9226;47.858;9.594;2022-08-19T00:43:26;94823.59;;;19.06;90.55
18201;BME280;9226;47.858;9.594;2022-08-19T00:45:52;94824.75;;;18.96;90.52
18201;BME280;9226;47.858;9.594;2022-08-19T00:48:19;94814.75;;;18.90;90.59
18201;BME280;9226;47.858;9.594;2022-08-19T00:50:48;94810.44;;;18.74;90.96
18201;BME280;9226;47.858;9.594;2022-08-19T00:53:16;94817.69;;;18.59;92.23
18201;BME280;9226;47.858;9.594;2022-08-19T00:55:48;94815.19;;;18.57;92.13
18201;BME280;9226;47.858;9.594;2022-08-19T00:58:17;94813.34;;;18.58;92.04
18201;BME280;9226;47.858;9.594;2022-08-19T01:00:44;94818.53;;;18.59;91.69
18201;BME280;9226;47.858;9.594;2022-08-19T01:03:12;94816.13;;;18.65;91.24
18201;BME280;9226;47.858;9.594;2022-08-19T01:05:40;94815.84;;;18.59;91.60
18201;BME280;9226;47.858;9.594;2022-08-19T01:08:06;94818.53;;;18.59;91.74
18201;BME280;9226;47.858;9.594;2022-08-19T01:10:37;94819.38;;;18.60;91.21
18201;BME280;9226;47.858;9.594;2022-08-19T01:13:04;94823.25;;;18.57;90.82
18201;BME280;9226;47.858;9.594;2022-08-19T01:15:33;94815.50;;;18.48;91.44
18201;BME280;9226;47.858;9.594;2022-08-19T01:18:07;94815.13;;;18.51;91.24
18201;BME280;9226;47.858;9.594;2022-08-19T01:20:34;94811.88;;;18.55;90.70
18201;BME280;9226;47.858;9.594;2022-08-19T01:23:00;94807.25;;;18.49;91.41
18201;BME280;9226;47.858;9.594;2022-08-19T01:25:32;94808.94;;;18.50;91.38
18201;BME280;9226;47.858;9.594;2022-08-19T01:27:59;94805.88;;;18.53;91.40
18201;BME280;9226;47.858;9.594;2022-08-19T01:30:28;94814.94;;;18.52;92.23
18201;BME280;9226;47.858;9.594;2022-08-19T01:32:55;94811.25;;;18.53;91.98
18201;BME280;9226;47.858;9.594;2022-08-19T01:35:23;94807.34;;;18.56;92.10
18201;BME280;9226;47.858;9.594;2022-08-19T01:38:01;94811.25;;;18.53;92.82
18201;BME280;9226;47.858;9.594;2022-08-19T01:40:30;94810.84;;;18.56;92.60
18201;BME280;9226;47.858;9.594;2022-08-19T01:42:59;94806.97;;;18.59;92.37
18201;BME280;9226;47.858;9.594;2022-08-19T01:45:26;94810.47;;;18.59;92.42
18201;BME280;9226;47.858;9.594;2022-08-19T01:47:52;94808.06;;;18.65;92.09
18201;BME280;9226;47.858;9.594;2022-08-19T01:50:18;94805.38;;;18.65;92.53
18201;BME280;9226;47.858;9.594;2022-08-19T01:52:44;94813.69;;;18.70;92.05
18201;BME280;9226;47.858;9.594;2022-08-19T01:55:17;94815.19;;;18.72;91.73
18201;BME280;9226;47.858;9.594;2022-08-19T01:57:44;94815.81;;;18.74;91.50
18201;BME280;9226;47.858;9.594;2022-08-19T02:00:13;94808.38;;;18.76;91.60
18201;BME280;9226;47.858;9.594;2022-08-19T02:02:41;94812.69;;;18.71;92.81
18201;BME280;9226;47.858;9.594;2022-08-19T02:05:07;94810.81;;;18.71;91.94
18201;BME280;9226;47.858;9.594;2022-08-19T02:07:34;94807.94;;;18.73;92.03
18201;BME280;9226;47.858;9.594;2022-08-19T02:10:08;94807.56;;;18.76;91.71
18201;BME280;9226;47.858;9.594;2022-08-19T02:12:34;94806.50;;;18.77;91.94
18201;BME280;9226;47.858;9.594;2022-08-19T02:15:00;94808.19;;;18.78;91.42
18201;BME280;9226;47.858;9.594;2022-08-19T02:17:27;94798.59;;;18.69;92.38
18201;BME280;9226;47.858;9.594;2022-08-19T02:19:54;94802.75;;;18.71;91.30
18201;BME280;9226;47.858;9.594;2022-08-19T02:22:19;94813.50;;;18.71;91.09
18201;BME280;9226;47.858;9.594;2022-08-19T02:24:45;94814.50;;;18.70;91.22
18201;BME280;9226;47.858;9.594;2022-08-19T02:27:11;94829.06;;;18.76;90.79
18201;BME280;9226;47.858;9.594;2022-08-19T02:29:36;94824.31;;;18.78;90.71
18201;BME280;9226;47.858;9.594;2022-08-19T02:32:02;94818.31;;;18.76;90.79
18201;BME280;9226;47.858;9.594;2022-08-19T02:34:28;94818.94;;;18.78;90.99
18201;BME280;9226;47.858;9.594;2022-08-19T02:36:54;94806.72;;;18.75;90.89
18201;BME280;9226;47.858;9.594;2022-08-19T02:39:19;94809.19;;;18.77;90.76
18201;BME280;9226;47.858;9.594;2022-08-19T02:41:44;94799.50;;;18.76;91.02
18201;BME280;9226;47.858;9.594;2022-08-19T02:44:10;94802.81;;;18.78;90.53
18201;BME280;9226;47.858;9.594;2022-08-19T02:46:35;94798.94;;;18.80;90.56
18201;BME280;9226;47.858;9.594;2022-08-19T02:49:05;94799.41;;;18.84;89.96
18201;BME280;9226;47.858;9.594;2022-08-19T02:51:33;94801.88;;;18.86;89.98
18201;BME280;9226;47.858;9.594;2022-08-19T02:54:00;94806.06;;;18.88;90.11
18201;BME280;9226;47.858;9.594;2022-08-19T02:56:26;94803.38;;;18.88;89.86
18201;BME280;9226;47.858;9.594;2022-08-19T02:58:53;94810.59;;;18.88;90.70
18201;BME280;9226;47.858;9.594;2022-08-19T03:03:46;94816.88;;;18.80;90.56
18201;BME280;9226;47.858;9.594;2022-08-19T03:06:14;94824.41;;;18.85;90.06
18201;BME280;9226;47.858;9.594;2022-08-19T03:08:42;94813.09;;;18.89;89.48
18201;BME280;9226;47.858;9.594;2022-08-19T03:11:19;94809.75;;;18.87;89.58
18201;BME280;9226;47.858;9.594;2022-08-19T03:13:46;94817.34;;;18.84;89.33
18201;BME280;9226;47.858;9.594;2022-08-19T03:16:14;94820.91;;;18.84;89.10
18201;BME280;9226;47.858;9.594;2022-08-19T03:18:40;94826.63;;;18.81;89.29
18201;BME280;9226;47.858;9.594;2022-08-19T03:21:06;94829.94;;;18.83;88.54
18201;BME280;9226;47.858;9.594;2022-08-19T03:23:32;94830.69;;;18.77;88.70
18201;BME280;9226;47.858;9.594;2022-08-19T03:25:58;94827.94;;;18.70;88.90
18201;BME280;9226;47.858;9.594;2022-08-19T03:28:24;94829.38;;;18.66;88.87
18201;BME280;9226;47.858;9.594;2022-08-19T03:31:04;94835.31;;;18.61;89.70
18201;BME280;9226;47.858;9.594;2022-08-19T03:33:31;94833.00;;;18.58;90.35
18201;BME280;9226;47.858;9.594;2022-08-19T03:36:07;94821.78;;;18.55;90.94
18201;BME280;9226;47.858;9.594;2022-08-19T03:38:36;94825.94;;;18.57;91.27
18201;BME280;9226;47.858;9.594;2022-08-19T03:41:07;94822.88;;;18.60;90.44
18201;BME280;9226;47.858;9.594;2022-08-19T03:43:35;94823.06;;;18.59;90.82
18201;BME280;9226;47.858;9.594;2022-08-19T03:46:12;94812.13;;;18.60;90.40
18201;BME280;9226;47.858;9.594;2022-08-19T03:48:40;94810.47;;;18.59;90.95
18201;BME280;9226;47.858;9.594;2022-08-19T03:51:06;94809.47;;;18.60;91.17
18201;BME280;9226;47.858;9.594;2022-08-19T03:53:33;94803.69;;;18.63;90.81
18201;BME280;9226;47.858;9.594;2022-08-19T03:55:59;94803.06;;;18.61;90.33
18201;BME280;9226;47.858;9.594;2022-08-19T03:58:25;94801.13;;;18.55;91.29
18201;BME280;9226;47.858;9.594;2022-08-19T04:00:56;94800.56;;;18.60;90.45
18201;BME280;9226;47.858;9.594;2022-08-19T04:03:23;94800.22;;;18.48;91.01
18201;BME280;9226;47.858;9.594;2022-08-19T04:05:49;94801.25;;;18.47;90.84
18201;BME280;9226;47.858;9.594;2022-08-19T04:08:15;94797.47;;;18.41;91.26
18201;BME280;9226;47.858;9.594;2022-08-19T04:10:46;94786.34;;;18.44;90.97
18201;BME280;9226;47.858;9.594;2022-08-19T04:13:12;94787.53;;;18.42;91.38
18201;BME280;9226;47.858;9.594;2022-08-19T04:15:40;94784.84;;;18.42;91.71
18201;BME280;9226;47.858;9.594;2022-08-19T04:18:08;94779.09;;;18.45;92.44
18201;BME280;9226;47.858;9.594;2022-08-19T04:20:45;94778.47;;;18.43;93.12
18201;BME280;9226;47.858;9.594;2022-08-19T04:23:13;94772.72;;;18.46;92.57
18201;BME280;9226;47.858;9.594;2022-08-19T04:25:40;94763.91;;;18.52;92.25
18201;BME280;9226;47.858;9.594;2022-08-19T04:28:07;94770.34;;;18.58;91.30
18201;BME280;9226;47.858;9.594;2022-08-19T04:30:41;94774.91;;;18.57;92.10
18201;BME280;9226;47.858;9.594;2022-08-19T04:33:07;94774.53;;;18.60;91.70
18201;BME280;9226;47.858;9.594;2022-08-19T04:35:41;94792.13;;;18.63;91.45
18201;BME280;9226;47.858;9.594;2022-08-19T04:38:07;94811.38;;;18.67;90.89
18201;BME280;9226;47.858;9.594;2022-08-19T04:40:34;94802.94;;;18.70;90.33
18201;BME280;9226;47.858;9.594;2022-08-19T04:43:18;94805.44;;;18.71;90.70
18201;BME280;9226;47.858;9.594;2022-08-19T04:45:44;94808.31;;;18.70;91.31
18201;BME280;9226;47.858;9.594;2022-08-19T04:48:11;94811.63;;;18.72;91.15
18201;BME280;9226;47.858;9.594;2022-08-19T04:50:40;94823.25;;;18.72;91.21
18201;BME280;9226;47.858;9.594;2022-08-19T04:53:06;94825.31;;;18.77;90.91
18201;BME280;9226;47.858;9.594;2022-08-19T04:55:31;94836.06;;;18.77;90.35
18201;BME280;9226;47.858;9.594;2022-08-19T04:57:57;94832.81;;;18.81;90.08
18201;BME280;9226;47.858;9.594;2022-08-19T05:00:23;94831.09;;;18.74;90.72
18201;BME280;9226;47.858;9.594;2022-08-19T05:02:48;94838.56;;;18.78;90.12
18201;BME280;9226;47.858;9.594;2022-08-19T05:05:14;94838.94;;;18.75;90.33
18201;BME280;9226;47.858;9.594;2022-08-19T05:07:40;94836.94;;;18.77;90.71
18201;BME280;9226;47.858;9.594;2022-08-19T05:10:06;94844.31;;;18.75;90.71
18201;BME280;9226;47.858;9.594;2022-08-19T05:12:32;94845.94;;;18.70;90.89
18201;BME280;9226;47.858;9.594;2022-08-19T05:14:58;94849.44;;;18.70;90.39
18201;BME280;9226;47.858;9.594;2022-08-19T05:17:26;94849.25;;;18.72;91.05
18201;BME280;9226;47.858;9.594;2022-08-19T05:19:52;94848.25;;;18.58;92.02
18201;BME280;9226;47.858;9.594;2022-08-19T05:22:35;94847.81;;;18.54;91.42
18201;BME280;9226;47.858;9.594;2022-08-19T05:25:09;94851.06;;;18.50;91.38
18201;BME280;9226;47.858;9.594;2022-08-19T05:27:37;94852.38;;;18.54;90.98
18201;BME280;9226;47.858;9.594;2022-08-19T05:30:03;94865.25;;;18.58;91.08
18201;BME280;9226;47.858;9.594;2022-08-19T05:32:30;94862.19;;;18.61;91.02
18201;BME280;9226;47.858;9.594;2022-08-19T05:34:55;94861.78;;;18.65;90.65
18201;BME280;9226;47.858;9.594;2022-08-19T05:37:21;94865.50;;;18.63;91.58
18201;BME280;9226;47.858;9.594;2022-08-19T05:39:47;94861.13;;;18.62;92.17
18201;BME280;9226;47.858;9.594;2022-08-19T05:42:14;94858.34;;;18.71;91.99
18201;BME280;9226;47.858;9.594;2022-08-19T05:44:42;94858.63;;;18.76;91.96
18201;BME280;9226;47.858;9.594;2022-08-19T05:47:11;94857.38;;;18.78;92.17
18201;BME280;9226;47.858;9.594;2022-08-19T05:49:37;94860.53;;;18.82;92.23
18201;BME280;9226;47.858;9.594;2022-08-19T05:52:05;94859.16;;;18.86;92.23
18201;BME280;9226;47.858;9.594;2022-08-19T05:54:31;94860.19;;;18.85;93.13
18201;BME280;9226;47.858;9.594;2022-08-19T05:56:57;94862.56;;;18.80;93.99
18201;BME280;9226;47.858;9.594;2022-08-19T05:59:22;94863.53;;;18.87;92.59
18201;BME280;9226;47.858;9.594;2022-08-19T06:01:50;94859.44;;;18.91;91.87
18201;BME280;9226;47.858;9.594;2022-08-19T06:04:17;94871.84;;;18.92;91.76
18201;BME280;9226;47.858;9.594;2022-08-19T06:06:45;94855.72;;;18.92;91.68
18201;BME280;9226;47.858;9.594;2022-08-19T06:09:11;94854.50;;;18.95;90.88
18201;BME280;9226;47.858;9.594;2022-08-19T06:11:42;94855.31;;;18.95;91.23
18201;BME280;9226;47.858;9.594;2022-08-19T06:14:12;94856.63;;;19.00;90.95
18201;BME280;9226;47.858;9.594;2022-08-19T06:16:39;94850.38;;;18.99;92.04
18201;BME280;9226;47.858;9.594;2022-08-19T06:19:09;94843.19;;;19.00;91.96
18201;BME280;9226;47.858;9.594;2022-08-19T06:21:36;94849.63;;;19.05;91.93
18201;BME280;9226;47.858;9.594;2022-08-19T06:24:03;94855.00;;;19.05;92.15
18201;BME280;9226;47.858;9.594;2022-08-19T06:26:29;94850.88;;;19.03;92.38
18201;BME280;9226;47.858;9.594;2022-08-19T06:28:55;94846.75;;;19.07;91.94
18201;BME280;9226;47.858;9.594;2022-08-19T06:31:24;94852.78;;;19.09;92.20
18201;BME280;9226;47.858;9.594;2022-08-19T06:33:50;94858.16;;;19.09;92.05
18201;BME280;9226;47.858;9.594;2022-08-19T06:36:29;94862.06;;;19.06;92.26
18201;BME280;9226;47.858;9.594;2022-08-19T06:38:57;94854.72;;;19.15;91.69
18201;BME280;9226;47.858;9.594;2022-08-19T06:41:26;94860.47;;;19.12;91.46
18201;BME280;9226;47.858;9.594;2022-08-19T06:43:53;94858.03;;;19.17;91.35
18201;BME280;9226;47.858;9.594;2022-08-19T06:46:19;94868.97;;;19.15;91.53
18201;BME280;9226;47.858;9.594;2022-08-19T06:48:45;94873.78;;;19.20;91.19
18201;BME280;9226;47.858;9.594;2022-08-19T06:51:11;94872.75;;;19.21;91.17
18201;BME280;9226;47.858;9.594;2022-08-19T06:53:36;94876.47;;;19.20;91.37
18201;BME280;9226;47.858;9.594;2022-08-19T06:56:02;94872.09;;;19.19;91.39
18201;BME280;9226;47.858;9.594;2022-08-19T06:58:29;94877.94;;;19.23;91.20
18201;BME280;9226;47.858;9.594;2022-08-19T07:01:02;94877.34;;;19.27;90.84
18201;BME280;9226;47.858;9.594;2022-08-19T07:03:32;94880.69;;;19.29;90.72
18201;BME280;9226;47.858;9.594;2022-08-19T07:06:03;94880.81;;;19.21;91.75
18201;BME280;9226;47.858;9.594;2022-08-19T07:08:29;94890.41;;;19.30;90.95
18201;BME280;9226;47.858;9.594;2022-08-19T07:10:54;94893.28;;;19.29;91.02
18201;BME280;9226;47.858;9.594;2022-08-19T07:13:20;94887.09;;;19.28;91.28
18201;BME280;9226;47.858;9.594;2022-08-19T07:15:47;94889.16;;;19.26;91.80
18201;BME280;9226;47.858;9.594;2022-08-19T07:18:12;94890.78;;;19.27;91.99
18201;BME280;9226;47.858;9.594;2022-08-19T07:20:39;94890.78;;;19.27;91.79
18201;BME280;9226;47.858;9.594;2022-08-19T07:23:05;94897.03;;;19.28;92.27
18201;BME280;9226;47.858;9.594;2022-08-19T07:25:30;94887.16;;;19.35;91.45
18201;BME280;9226;47.858;9.594;2022-08-19T07:27:56;94887.59;;;19.39;91.42
18201;BME280;9226;47.858;9.594;2022-08-19T07:30:21;94881.00;;;19.41;91.45
18201;BME280;9226;47.858;9.594;2022-08-19T07:32:48;94891.81;;;19.48;91.19
18201;BME280;9226;47.858;9.594;2022-08-19T07:35:15;94887.72;;;19.52;91.59
18201;BME280;9226;47.858;9.594;2022-08-19T07:37:44;94885.66;;;19.54;91.73
18201;BME280;9226;47.858;9.594;2022-08-19T07:40:11;94887.38;;;19.62;91.43
18201;BME280;9226;47.858;9.594;2022-08-19T07:42:37;94890.97;;;19.69;91.36
18201;BME280;9226;47.858;9.594;2022-08-19T07:45:04;94883.34;;;19.73;91.04
18201;BME280;9226;47.858;9.594;2022-08-19T07:47:30;94887.50;;;19.75;91.28
18201;BME280;9226;47.858;9.594;2022-08-19T07:49:56;94895.41;;;19.77;91.27
18201;BME280;9226;47.858;9.594;2022-08-19T07:52:21;94891.91;;;19.83;90.95
18201;BME280;9226;47.858;9.594;2022-08-19T07:54:47;94897.56;;;19.88;90.93
18201;BME280;9226;47.858;9.594;2022-08-19T07:57:13;94892.63;;;19.92;90.50
18201;BME280;9226;47.858;9.594;2022-08-19T07:59:38;94890.94;;;19.91;90.50
18201;BME280;9226;47.858;9.594;2022-08-19T08:02:04;94895.13;;;19.93;90.09
18201;BME280;9226;47.858;9.594;2022-08-19T08:04:31;94891.00;;;19.97;89.29
18201;BME280;9226;47.858;9.594;2022-08-19T08:07:15;94889.97;;;19.98;89.41
18201;BME280;9226;47.858;9.594;2022-08-19T08:09:59;94889.56;;;20.01;89.31
18201;BME280;9226;47.858;9.594;2022-08-19T08:12:29;94901.41;;;20.00;88.87
18201;BME280;9226;47.858;9.594;2022-08-19T08:14:58;94901.41;;;20.00;88.89
18201;BME280;9226;47.858;9.594;2022-08-19T08:17:26;94900.53;;;20.00;89.18
18201;BME280;9226;47.858;9.594;2022-08-19T08:19:53;94902.81;;;19.96;89.02
18201;BME280;9226;47.858;9.594;2022-08-19T08:22:21;94897.41;;;19.96;89.22
18201;BME280;9226;47.858;9.594;2022-08-19T08:25:13;94912.34;;;19.99;88.76
18201;BME280;9226;47.858;9.594;2022-08-19T08:27:41;94911.69;;;19.97;88.60
18201;BME280;9226;47.858;9.594;2022-08-19T08:30:12;94914.59;;;19.95;88.76
18201;BME280;9226;47.858;9.594;2022-08-19T08:32:39;94912.75;;;19.96;88.69
18201;BME280;9226;47.858;9.594;2022-08-19T08:35:07;94918.91;;;19.90;88.87
18201;BME280;9226;47.858;9.594;2022-08-19T08:37:33;94915.16;;;19.91;88.61
18201;BME280;9226;47.858;9.594;2022-08-19T08:40:01;94917.03;;;19.90;89.17
18201;BME280;9226;47.858;9.594;2022-08-19T08:42:31;94920.75;;;19.89;88.82
18201;BME280;9226;47.858;9.594;2022-08-19T08:45:11;94925.50;;;19.87;88.81
18201;BME280;9226;47.858;9.594;2022-08-19T08:47:41;94924.28;;;19.90;88.46
18201;BME280;9226;47.858;9.594;2022-08-19T08:50:14;94933.16;;;19.83;88.43
18201;BME280;9226;47.858;9.594;2022-08-19T08:52:45;94933.94;;;19.77;88.72
18201;BME280;9226;47.858;9.594;2022-08-19T08:55:16;94934.66;;;19.71;89.49
18201;BME280;9226;47.858;9.594;2022-08-19T09:00:31;94932.78;;;19.71;89.41
18201;BME280;9226;47.858;9.594;2022-08-19T09:02:58;94933.84;;;19.70;89.18
18201;BME280;9226;47.858;9.594;2022-08-19T09:05:34;94938.19;;;19.71;89.38
18201;BME280;9226;47.858;9.594;2022-08-19T09:08:22;94942.75;;;19.71;89.49
18201;BME280;9226;47.858;9.594;2022-08-19T09:10:55;94933.09;;;19.77;88.83
18201;BME280;9226;47.858;9.594;2022-08-19T09:16:28;94938.50;;;19.77;89.33
18201;BME280;9226;47.858;9.594;2022-08-19T09:18:58;94935.00;;;19.83;89.38
18201;BME280;9226;47.858;9.594;2022-08-19T09:21:25;94937.28;;;19.86;89.54
18201;BME280;9226;47.858;9.594;2022-08-19T09:23:52;94944.16;;;19.88;89.38
18201;BME280;9226;47.858;9.594;2022-08-19T09:26:21;94941.47;;;19.88;89.55
18201;BME280;9226;47.858;9.594;2022-08-19T09:28:50;94947.94;;;19.94;88.80
18201;BME280;9226;47.858;9.594;2022-08-19T09:31:21;94951.03;;;19.91;89.30
18201;BME280;9226;47.858;9.594;2022-08-19T09:33:47;94956.03;;;19.94;89.24
18201;BME280;9226;47.858;9.594;2022-08-19T09:36:15;94959.97;;;19.98;88.75
18201;BME280;9226;47.858;9.594;2022-08-19T09:38:41;94959.78;;;20.00;88.87
18201;BME280;9226;47.858;9.594;2022-08-19T09:41:16;94964.38;;;20.06;88.86
18201;BME280;9226;47.858;9.594;2022-08-19T09:43:44;94957.50;;;20.03;88.88
18201;BME280;9226;47.858;9.594;2022-08-19T09:46:11;94961.31;;;20.09;89.16
18201;BME280;9226;47.858;9.594;2022-08-19T09:48:40;94959.44;;;20.10;89.21
18201;BME280;9226;47.858;9.594;2022-08-19T09:51:19;94957.44;;;20.18;89.14
18201;BME280;9226;47.858;9.594;2022-08-19T09:53:46;94967.44;;;20.24;89.10
18201;BME280;9226;47.858;9.594;2022-08-19T09:56:12;94968.88;;;20.27;89.31
18201;BME280;9226;47.858;9.594;2022-08-19T09:58:39;94964.78;;;20.31;88.61
18201;BME280;9226;47.858;9.594;2022-08-19T10:01:06;94969.78;;;20.34;88.33
18201;BME280;9226;47.858;9.594;2022-08-19T10:03:33;94971.25;;;20.37;87.60
18201;BME280;9226;47.858;9.594;2022-08-19T10:06:02;94975.16;;;20.34;87.69
18201;BME280;9226;47.858;9.594;2022-08-19T10:08:34;94973.28;;;20.35;87.15
18201;BME280;9226;47.858;9.594;2022-08-19T10:11:05;94972.84;;;20.31;87.06
18201;BME280;9226;47.858;9.594;2022-08-19T10:13:33;94975.94;;;20.28;87.31
18201;BME280;9226;47.858;9.594;2022-08-19T10:16:09;94979.25;;;20.30;87.09
18201;BME280;9226;47.858;9.594;2022-08-19T10:18:36;94973.25;;;20.28;87.13
18201;BME280;9226;47.858;9.594;2022-08-19T10:21:13;94979.03;;;20.25;87.30
18201;BME280;9226;47.858;9.594;2022-08-19T10:23:42;94978.59;;;20.21;87.13
18201;BME280;9226;47.858;9.594;2022-08-19T10:26:11;94985.16;;;20.12;87.96
18201;BME280;9226;47.858;9.594;2022-08-19T10:28:37;94989.16;;;20.23;87.33
18201;BME280;9226;47.858;9.594;2022-08-19T10:31:49;94990.59;;;20.19;87.50
18201;BME280;9226;47.858;9.594;2022-08-19T10:34:08;94987.72;;;20.27;87.20
18201;BME280;9226;47.858;9.594;2022-08-19T10:36:36;94990.69;;;20.32;87.04
18201;BME280;9226;47.858;9.594;2022-08-19T10:39:05;94999.41;;;20.34;87.13
18201;BME280;9226;47.858;9.594;2022-08-19T10:41:34;94996.31;;;20.37;86.98
18201;BME280;9226;47.858;9.594;2022-08-19T10:44:06;94994.66;;;20.36;86.95
18201;BME280;9226;47.858;9.594;2022-08-19T10:46:33;94992.81;;;20.37;87.03
18201;BME280;9226;47.858;9.594;2022-08-19T10:49:02;94993.63;;;20.37;87.04
18201;BME280;9226;47.858;9.594;2022-08-19T10:51:28;94991.94;;;20.36;87.14
18201;BME280;9226;47.858;9.594;2022-08-19T10:54:12;94993.63;;;20.37;86.72
18201;BME280;9226;47.858;9.594;2022-08-19T10:56:38;94999.41;;;20.34;86.70
18201;BME280;9226;47.858;9.594;2022-08-19T10:59:27;94988.81;;;20.33;86.75
18201;BME280;9226;47.858;9.594;2022-08-19T11:01:57;94993.38;;;20.32;86.93
18201;BME280;9226;47.858;9.594;2022-08-19T11:04:23;94985.31;;;20.32;86.80
18201;BME280;9226;47.858;9.594;2022-08-19T11:06:49;94996.09;;;20.32;86.82
18201;BME280;9226;47.858;9.594;2022-08-19T11:09:17;94984.84;;;20.29;86.83
18201;BME280;9226;47.858;9.594;2022-08-19T11:11:43;94994.41;;;20.31;86.69
18201;BME280;9226;47.858;9.594;2022-08-19T11:14:11;94988.63;;;20.34;86.60
18201;BME280;9226;47.858;9.594;2022-08-19T11:16:37;94986.16;;;20.39;86.40
18201;BME280;9226;47.858;9.594;2022-08-19T11:19:06;94988.25;;;20.37;86.76
18201;BME280;9226;47.858;9.594;2022-08-19T11:21:35;94983.72;;;20.45;86.53
18201;BME280;9226;47.858;9.594;2022-08-19T11:24:08;94988.66;;;20.41;86.81
18201;BME280;9226;47.858;9.594;2022-08-19T11:26:34;94987.28;;;20.52;86.50
18201;BME280;9226;47.858;9.594;2022-08-19T11:29:00;94985.00;;;20.49;86.58
18201;BME280;9226;47.858;9.594;2022-08-19T11:31:29;94982.91;;;20.51;86.47
18201;BME280;9226;47.858;9.594;2022-08-19T11:34:00;94989.59;;;20.55;86.16
18201;BME280;9226;47.858;9.594;2022-08-19T11:36:27;94984.59;;;20.52;86.49
18201;BME280;9226;47.858;9.594;2022-08-19T11:38:53;94994.59;;;20.58;86.17
18201;BME280;9226;47.858;9.594;2022-08-19T11:41:21;94987.53;;;20.57;86.44
18201;BME280;9226;47.858;9.594;2022-08-19T11:43:49;94990.47;;;20.62;86.47
18201;BME280;9226;47.858;9.594;2022-08-19T11:46:16;94990.00;;;20.52;86.98
18201;BME280;9226;47.858;9.594;2022-08-19T11:48:42;94996.88;;;20.61;85.86
18201;BME280;9226;47.858;9.594;2022-08-19T11:51:10;94994.97;;;20.55;86.05
18201;BME280;9226;47.858;9.594;2022-08-19T11:53:37;94991.59;;;20.46;86.44
18201;BME280;9226;47.858;9.594;2022-08-19T11:56:04;94997.06;;;20.53;85.94
18201;BME280;9226;47.858;9.594;2022-08-19T11:58:30;94993.31;;;20.54;86.26
18201;BME280;9226;47.858;9.594;2022-08-19T12:00:55;94990.22;;;20.57;86.10
18201;BME280;9226;47.858;9.594;2022-08-19T12:03:21;94997.91;;;20.60;86.22
18201;BME280;9226;47.858;9.594;2022-08-19T12:05:47;94990.81;;;20.52;86.58
18201;BME280;9226;47.858;9.594;2022-08-19T12:08:13;94993.31;;;20.54;85.89
18201;BME280;9226;47.858;9.594;2022-08-19T12:10:40;94993.66;;;20.44;86.71
18201;BME280;9226;47.858;9.594;2022-08-19T12:13:08;94991.31;;;20.34;86.82
18201;BME280;9226;47.858;9.594;2022-08-19T12:15:38;94993.28;;;20.47;86.02
18201;BME280;9226;47.858;9.594;2022-08-19T12:18:06;95001.94;;;20.42;86.30
18201;BME280;9226;47.858;9.594;2022-08-19T12:20:35;95006.72;;;20.40;86.51
18201;BME280;9226;47.858;9.594;2022-08-19T12:23:01;95001.75;;;20.44;86.62
18201;BME280;9226;47.858;9.594;2022-08-19T12:25:26;95011.13;;;20.48;86.62
18201;BME280;9226;47.858;9.594;2022-08-19T12:27:51;95010.47;;;20.46;86.82
18201;BME280;9226;47.858;9.594;2022-08-19T12:30:17;95010.72;;;20.51;86.71
18201;BME280;9226;47.858;9.594;2022-08-19T12:32:42;95016.94;;;20.52;86.73
18201;BME280;9226;47.858;9.594;2022-08-19T12:35:08;95013.63;;;20.50;86.59
18201;BME280;9226;47.858;9.594;2022-08-19T12:37:37;95013.03;;;20.54;86.52
18201;BME280;9226;47.858;9.594;2022-08-19T12:40:03;95020.13;;;20.62;86.34
18201;BME280;9226;47.858;9.594;2022-08-19T12:42:29;95019.88;;;20.57;86.77
18201;BME280;9226;47.858;9.594;2022-08-19T12:44:55;95024.88;;;20.60;86.26
18201;BME280;9226;47.858;9.594;2022-08-19T12:47:22;95019.28;;;20.61;86.87
18201;BME280;9226;47.858;9.594;2022-08-19T12:49:49;95024.88;;;20.60;86.64
18201;BME280;9226;47.858;9.594;2022-08-19T12:52:16;95016.38;;;20.63;86.65
18201;BME280;9226;47.858;9.594;2022-08-19T12:54:42;95023.09;;;20.67;86.55
18201;BME280;9226;47.858;9.594;2022-08-19T12:57:09;95027.50;;;20.75;86.46
18201;BME280;9226;47.858;9.594;2022-08-19T12:59:36;95026.03;;;20.79;86.54
18201;BME280;9226;47.858;9.594;2022-08-19T13:02:05;95026.31;;;20.84;86.26
18201;BME280;9226;47.858;9.594;2022-08-19T13:04:33;95025.44;;;20.84;86.11
18201;BME280;9226;47.858;9.594;2022-08-19T13:07:06;95034.16;;;20.86;86.37
18201;BME280;9226;47.858;9.594;2022-08-19T13:09:31;95041.63;;;20.84;87.43
18201;BME280;9226;47.858;9.594;2022-08-19T13:11:57;95032.13;;;20.88;86.82
18201;BME280;9226;47.858;9.594;2022-08-19T13:14:22;95036.03;;;20.85;87.22
18201;BME280;9226;47.858;9.594;2022-08-19T13:16:48;95043.31;;;20.85;87.81
18201;BME280;9226;47.858;9.594;2022-08-19T13:19:13;95045.84;;;20.93;86.94
18201;BME280;9226;47.858;9.594;2022-08-19T13:21:39;95044.22;;;20.99;86.51
18201;BME280;9226;47.858;9.594;2022-08-19T13:24:04;95035.53;;;21.03;85.67